sensor_id;sensor_type;location;lat;lon;timestamp;P1;durP1;ratioP1;P2;durP2;ratioP2
24421;SDS011;12600;53.326;-6.298;2023-05-16T00:01:24;10.40;;;2.75;;
24421;SDS011;12600;53.326;-6.298;2023-05-16T00:04:16;9.63;;;2.45;;
24421;SDS011;12600;53.326;-6.298;2023-05-16T00:07:07;10.27;;;3.00;;
24421;SDS011;12600;53.326;-6.298;2023-05-16T00:09:56;12.57;;;3.13;;
24421;SDS011;12600;53.326;-6.298;2023-05-16T00:12:47;10.05;;;3.63;;
24421;SDS011;12600;53.326;-6.298;2023-05-16T00:15:37;10.52;;;2.88;;
24421;SDS011;12600;53.326;-6.298;2023-05-16T00:18:27;11.30;;;2.80;;
24421;SDS011;12600;53.326;-6.298;2023-05-16T00:21:16;9.98;;;2.72;;
24421;SDS011;12600;53.326;-6.298;2023-05-16T00:24:09;7.75;;;2.75;;
24421;SDS011;12600;53.326;-6.298;2023-05-16T00:26:58;9.18;;;2.65;;
24421;SDS011;12600;53.326;-6.298;2023-05-16T00:29:49;6.07;;;2.30;;
24421;SDS011;12600;53.326;-6.298;2023-05-16T00:32:39;8.90;;;2.47;;
24421;SDS011;12600;53.326;-6.298;2023-05-16T00:35:28;7.28;;;2.38;;
24421;SDS011;12600;53.326;-6.298;2023-05-16T00:38:17;9.75;;;2.72;;
24421;SDS011;12600;53.326;-6.298;2023-05-16T00:41:07;11.50;;;3.00;;
24421;SDS011;12600;53.326;-6.298;2023-05-16T00:43:56;6.95;;;2.60;;
24421;SDS011;12600;53.326;-6.298;2023-05-16T00:46:47;12.65;;;2.70;;
24421;SDS011;12600;53.326;-6.298;2023-05-16T00:49:37;8.10;;;2.60;;
24421;SDS011;12600;53.326;-6.298;2023-05-16T00:52:26;7.05;;;2.58;;
24421;SDS011;12600;53.326;-6.298;2023-05-16T00:55:16;9.20;;;2.55;;
24421;SDS011;12600;53.326;-6.298;2023-05-16T00:58:06;9.45;;;3.17;;
24421;SDS011;12600;53.326;-6.298;2023-05-16T01:01:04;7.82;;;2.67;;
24421;SDS011;12600;53.326;-6.298;2023-05-16T01:03:56;7.63;;;2.80;;
24421;SDS011;12600;53.326;-6.298;2023-05-16T01:06:47;9.55;;;3.00;;
24421;SDS011;12600;53.326;-6.298;2023-05-16T01:09:36;14.13;;;3.40;;
24421;SDS011;12600;53.326;-6.298;2023-05-16T01:12:28;10.82;;;3.03;;
24421;SDS011;12600;53.326;-6.298;2023-05-16T01:15:24;6.57;;;2.72;;
24421;SDS011;12600;53.326;-6.298;2023-05-16T01:18:22;10.82;;;3.42;;
24421;SDS011;12600;53.326;-6.298;2023-05-16T01:21:21;14.65;;;3.58;;
24421;SDS011;12600;53.326;-6.298;2023-05-16T01:24:32;12.52;;;3.90;;
24421;SDS011;12600;53.326;-6.298;2023-05-16T01:27:31;12.52;;;3.40;;
24421;SDS011;12600;53.326;-6.298;2023-05-16T01:30:21;12.45;;;4.10;;
24421;SDS011;12600;53.326;-6.298;2023-05-16T01:33:10;11.07;;;3.50;;
24421;SDS011;12600;53.326;-6.298;2023-05-16T01:36:00;11.63;;;3.88;;
24421;SDS011;12600;53.326;-6.298;2023-05-16T01:39:03;14.88;;;4.32;;
24421;SDS011;12600;53.326;-6.298;2023-05-16T01:42:02;11.93;;;3.90;;
24421;SDS011;12600;53.326;-6.298;2023-05-16T01:47:51;10.10;;;3.90;;
24421;SDS011;12600;53.326;-6.298;2023-05-16T01:50:49;10.73;;;3.55;;
24421;SDS011;12600;53.326;-6.298;2023-05-16T01:53:43;10.23;;;3.63;;
24421;SDS011;12600;53.326;-6.298;2023-05-16T01:56:33;14.43;;;4.00;;
24421;SDS011;12600;53.326;-6.298;2023-05-16T01:59:24;14.45;;;3.60;;
24421;SDS011;12600;53.326;-6.298;2023-05-16T02:02:18;15.23;;;3.30;;
24421;SDS011;12600;53.326;-6.298;2023-05-16T02:05:07;11.88;;;3.22;;
24421;SDS011;12600;53.326;-6.298;2023-05-16T02:07:57;9.15;;;3.22;;
24421;SDS011;12600;53.326;-6.298;2023-05-16T02:10:46;11.90;;;3.13;;
24421;SDS011;12600;53.326;-6.298;2023-05-16T02:13:36;13.13;;;2.78;;
24421;SDS011;12600;53.326;-6.298;2023-05-16T02:16:25;5.95;;;2.63;;
24421;SDS011;12600;53.326;-6.298;2023-05-16T02:19:19;8.95;;;2.63;;
24421;SDS011;12600;53.326;-6.298;2023-05-16T02:22:08;7.78;;;2.72;;
24421;SDS011;12600;53.326;-6.298;2023-05-16T02:24:58;8.00;;;2.95;;
24421;SDS011;12600;53.326;-6.298;2023-05-16T02:27:49;11.60;;;2.85;;
24421;SDS011;12600;53.326;-6.298;2023-05-16T02:30:38;11.38;;;2.92;;
24421;SDS011;12600;53.326;-6.298;2023-05-16T02:33:29;10.40;;;2.50;;
24421;SDS011;12600;53.326;-6.298;2023-05-16T02:36:20;8.98;;;3.13;;
24421;SDS011;12600;53.326;-6.298;2023-05-16T02:39:10;9.93;;;2.88;;
24421;SDS011;12600;53.326;-6.298;2023-05-16T02:41:59;10.20;;;2.40;;
24421;SDS011;12600;53.326;-6.298;2023-05-16T02:44:48;8.82;;;3.03;;
24421;SDS011;12600;53.326;-6.298;2023-05-16T02:47:37;11.40;;;2.60;;
24421;SDS011;12600;53.326;-6.298;2023-05-16T02:50:27;12.15;;;2.90;;
24421;SDS011;12600;53.326;-6.298;2023-05-16T02:53:18;9.80;;;3.00;;
24421;SDS011;12600;53.326;-6.298;2023-05-16T02:56:07;5.75;;;2.80;;
24421;SDS011;12600;53.326;-6.298;2023-05-16T02:58:56;9.07;;;3.30;;
24421;SDS011;12600;53.326;-6.298;2023-05-16T03:01:47;10.07;;;2.90;;
24421;SDS011;12600;53.326;-6.298;2023-05-16T03:04:37;15.90;;;3.10;;
24421;SDS011;12600;53.326;-6.298;2023-05-16T03:07:26;10.30;;;2.95;;
24421;SDS011;12600;53.326;-6.298;2023-05-16T03:10:17;9.02;;;3.08;;
24421;SDS011;12600;53.326;-6.298;2023-05-16T03:13:06;13.55;;;3.65;;
24421;SDS011;12600;53.326;-6.298;2023-05-16T03:15:56;12.88;;;2.70;;
24421;SDS011;12600;53.326;-6.298;2023-05-16T03:18:45;10.88;;;3.05;;
24421;SDS011;12600;53.326;-6.298;2023-05-16T03:21:35;9.10;;;3.00;;
24421;SDS011;12600;53.326;-6.298;2023-05-16T03:24:25;9.27;;;3.03;;
24421;SDS011;12600;53.326;-6.298;2023-05-16T03:27:16;10.20;;;2.83;;
24421;SDS011;12600;53.326;-6.298;2023-05-16T03:30:06;8.23;;;3.15;;
24421;SDS011;12600;53.326;-6.298;2023-05-16T03:32:57;13.40;;;3.60;;
24421;SDS011;12600;53.326;-6.298;2023-05-16T03:35:46;9.82;;;3.10;;
24421;SDS011;12600;53.326;-6.298;2023-05-16T03:38:36;8.27;;;2.90;;
24421;SDS011;12600;53.326;-6.298;2023-05-16T03:41:25;10.90;;;3.20;;
24421;SDS011;12600;53.326;-6.298;2023-05-16T03:44:16;9.25;;;2.67;;
24421;SDS011;12600;53.326;-6.298;2023-05-16T03:47:06;8.30;;;2.75;;
24421;SDS011;12600;53.326;-6.298;2023-05-16T03:49:55;6.95;;;2.70;;
24421;SDS011;12600;53.326;-6.298;2023-05-16T03:52:49;12.60;;;2.85;;
24421;SDS011;12600;53.326;-6.298;2023-05-16T03:55:40;10.88;;;2.92;;
24421;SDS011;12600;53.326;-6.298;2023-05-16T03:58:35;10.88;;;2.97;;
24421;SDS011;12600;53.326;-6.298;2023-05-16T04:01:25;15.50;;;3.80;;
24421;SDS011;12600;53.326;-6.298;2023-05-16T04:04:15;14.32;;;5.43;;
24421;SDS011;12600;53.326;-6.298;2023-05-16T04:07:08;22.25;;;9.68;;
24421;SDS011;12600;53.326;-6.298;2023-05-16T04:09:57;23.85;;;12.52;;
24421;SDS011;12600;53.326;-6.298;2023-05-16T04:12:48;20.02;;;7.93;;
24421;SDS011;12600;53.326;-6.298;2023-05-16T04:15:37;15.70;;;5.43;;
24421;SDS011;12600;53.326;-6.298;2023-05-16T04:18:28;15.25;;;4.18;;
24421;SDS011;12600;53.326;-6.298;2023-05-16T04:21:21;15.73;;;3.67;;
24421;SDS011;12600;53.326;-6.298;2023-05-16T04:24:10;13.27;;;3.08;;
24421;SDS011;12600;53.326;-6.298;2023-05-16T04:27:01;14.93;;;3.00;;
24421;SDS011;12600;53.326;-6.298;2023-05-16T04:29:56;9.38;;;2.72;;
24421;SDS011;12600;53.326;-6.298;2023-05-16T04:32:46;6.55;;;2.53;;
24421;SDS011;12600;53.326;-6.298;2023-05-16T04:35:40;15.65;;;2.75;;
24421;SDS011;12600;53.326;-6.298;2023-05-16T04:38:29;8.30;;;2.80;;
24421;SDS011;12600;53.326;-6.298;2023-05-16T04:41:21;10.13;;;3.25;;
24421;SDS011;12600;53.326;-6.298;2023-05-16T04:44:12;8.10;;;2.80;;
24421;SDS011;12600;53.326;-6.298;2023-05-16T04:47:04;11.13;;;3.63;;
24421;SDS011;12600;53.326;-6.298;2023-05-16T04:49:57;14.57;;;3.00;;
24421;SDS011;12600;53.326;-6.298;2023-05-16T04:52:48;11.85;;;2.92;;
24421;SDS011;12600;53.326;-6.298;2023-05-16T04:55:42;11.00;;;3.30;;
24421;SDS011;12600;53.326;-6.298;2023-05-16T04:58:32;14.63;;;3.70;;
24421;SDS011;12600;53.326;-6.298;2023-05-16T05:01:40;11.95;;;3.30;;
24421;SDS011;12600;53.326;-6.298;2023-05-16T05:04:29;13.70;;;3.05;;
24421;SDS011;12600;53.326;-6.298;2023-05-16T05:07:19;15.23;;;2.92;;
24421;SDS011;12600;53.326;-6.298;2023-05-16T05:10:16;14.23;;;3.08;;
24421;SDS011;12600;53.326;-6.298;2023-05-16T05:13:05;11.05;;;2.72;;
24421;SDS011;12600;53.326;-6.298;2023-05-16T05:15:55;10.52;;;2.97;;
24421;SDS011;12600;53.326;-6.298;2023-05-16T05:18:44;11.63;;;3.00;;
24421;SDS011;12600;53.326;-6.298;2023-05-16T05:21:33;11.25;;;3.10;;
24421;SDS011;12600;53.326;-6.298;2023-05-16T05:24:25;11.48;;;3.17;;
24421;SDS011;12600;53.326;-6.298;2023-05-16T05:27:19;9.25;;;2.70;;
24421;SDS011;12600;53.326;-6.298;2023-05-16T05:30:08;10.65;;;3.03;;
24421;SDS011;12600;53.326;-6.298;2023-05-16T05:32:59;11.23;;;3.08;;
24421;SDS011;12600;53.326;-6.298;2023-05-16T05:35:48;16.80;;;3.15;;
24421;SDS011;12600;53.326;-6.298;2023-05-16T05:38:40;14.38;;;3.45;;
24421;SDS011;12600;53.326;-6.298;2023-05-16T05:41:33;8.90;;;3.17;;
24421;SDS011;12600;53.326;-6.298;2023-05-16T05:44:26;11.65;;;3.28;;
24421;SDS011;12600;53.326;-6.298;2023-05-16T05:47:15;14.90;;;3.60;;
24421;SDS011;12600;53.326;-6.298;2023-05-16T05:50:06;11.35;;;3.35;;
24421;SDS011;12600;53.326;-6.298;2023-05-16T05:52:57;13.13;;;3.80;;
24421;SDS011;12600;53.326;-6.298;2023-05-16T05:55:46;10.80;;;3.05;;
24421;SDS011;12600;53.326;-6.298;2023-05-16T05:58:36;10.70;;;2.95;;
24421;SDS011;12600;53.326;-6.298;2023-05-16T06:01:29;8.55;;;2.75;;
24421;SDS011;12600;53.326;-6.298;2023-05-16T06:04:18;11.25;;;3.25;;
24421;SDS011;12600;53.326;-6.298;2023-05-16T06:07:08;11.65;;;3.67;;
24421;SDS011;12600;53.326;-6.298;2023-05-16T06:09:57;12.38;;;2.88;;
24421;SDS011;12600;53.326;-6.298;2023-05-16T06:12:51;10.30;;;2.88;;
24421;SDS011;12600;53.326;-6.298;2023-05-16T06:15:40;16.20;;;3.45;;
24421;SDS011;12600;53.326;-6.298;2023-05-16T06:18:31;12.88;;;2.90;;
24421;SDS011;12600;53.326;-6.298;2023-05-16T06:21:21;15.82;;;3.45;;
24421;SDS011;12600;53.326;-6.298;2023-05-16T06:24:10;16.05;;;3.50;;
24421;SDS011;12600;53.326;-6.298;2023-05-16T06:27:00;13.85;;;3.67;;
24421;SDS011;12600;53.326;-6.298;2023-05-16T06:29:49;11.93;;;3.50;;
24421;SDS011;12600;53.326;-6.298;2023-05-16T06:32:38;12.68;;;3.30;;
24421;SDS011;12600;53.326;-6.298;2023-05-16T06:35:29;10.52;;;3.35;;
24421;SDS011;12600;53.326;-6.298;2023-05-16T06:38:18;12.95;;;3.60;;
24421;SDS011;12600;53.326;-6.298;2023-05-16T06:41:08;16.38;;;4.35;;
24421;SDS011;12600;53.326;-6.298;2023-05-16T06:43:57;15.40;;;3.30;;
24421;SDS011;12600;53.326;-6.298;2023-05-16T06:46:47;14.65;;;3.30;;
24421;SDS011;12600;53.326;-6.298;2023-05-16T06:49:36;15.13;;;3.33;;
24421;SDS011;12600;53.326;-6.298;2023-05-16T06:52:27;11.68;;;3.08;;
24421;SDS011;12600;53.326;-6.298;2023-05-16T06:55:16;10.38;;;3.28;;
24421;SDS011;12600;53.326;-6.298;2023-05-16T06:58:06;12.23;;;3.20;;
24421;SDS011;12600;53.326;-6.298;2023-05-16T07:00:55;9.82;;;3.38;;
24421;SDS011;12600;53.326;-6.298;2023-05-16T07:03:45;13.30;;;3.05;;
24421;SDS011;12600;53.326;-6.298;2023-05-16T07:06:34;13.00;;;3.17;;
24421;SDS011;12600;53.326;-6.298;2023-05-16T07:09:25;12.48;;;3.97;;
24421;SDS011;12600;53.326;-6.298;2023-05-16T07:12:15;11.32;;;3.42;;
24421;SDS011;12600;53.326;-6.298;2023-05-16T07:15:05;10.98;;;3.55;;
24421;SDS011;12600;53.326;-6.298;2023-05-16T07:17:55;13.27;;;3.30;;
24421;SDS011;12600;53.326;-6.298;2023-05-16T07:20:45;12.15;;;3.70;;
24421;SDS011;12600;53.326;-6.298;2023-05-16T07:23:34;11.55;;;3.88;;
24421;SDS011;12600;53.326;-6.298;2023-05-16T07:26:25;15.30;;;4.55;;
24421;SDS011;12600;53.326;-6.298;2023-05-16T07:29:14;11.45;;;4.03;;
24421;SDS011;12600;53.326;-6.298;2023-05-16T07:32:04;14.98;;;4.75;;
24421;SDS011;12600;53.326;-6.298;2023-05-16T07:34:54;14.32;;;4.97;;
24421;SDS011;12600;53.326;-6.298;2023-05-16T07:37:44;13.48;;;4.25;;
24421;SDS011;12600;53.326;-6.298;2023-05-16T07:40:33;18.67;;;4.80;;
24421;SDS011;12600;53.326;-6.298;2023-05-16T07:43:25;17.98;;;5.35;;
24421;SDS011;12600;53.326;-6.298;2023-05-16T07:46:16;24.35;;;5.00;;
24421;SDS011;12600;53.326;-6.298;2023-05-16T07:49:05;21.13;;;5.38;;
24421;SDS011;12600;53.326;-6.298;2023-05-16T07:51:55;20.33;;;6.00;;
24421;SDS011;12600;53.326;-6.298;2023-05-16T07:54:45;27.08;;;5.57;;
24421;SDS011;12600;53.326;-6.298;2023-05-16T07:57:34;21.95;;;5.90;;
24421;SDS011;12600;53.326;-6.298;2023-05-16T08:00:25;23.83;;;6.68;;
24421;SDS011;12600;53.326;-6.298;2023-05-16T08:03:15;23.38;;;6.88;;
24421;SDS011;12600;53.326;-6.298;2023-05-16T08:06:04;27.92;;;6.97;;
24421;SDS011;12600;53.326;-6.298;2023-05-16T08:08:54;30.73;;;7.97;;
24421;SDS011;12600;53.326;-6.298;2023-05-16T08:11:44;27.20;;;7.15;;
24421;SDS011;12600;53.326;-6.298;2023-05-16T08:14:33;28.15;;;7.35;;
24421;SDS011;12600;53.326;-6.298;2023-05-16T08:17:24;26.40;;;6.93;;
24421;SDS011;12600;53.326;-6.298;2023-05-16T08:20:13;31.38;;;7.30;;
24421;SDS011;12600;53.326;-6.298;2023-05-16T08:23:03;28.52;;;6.68;;
24421;SDS011;12600;53.326;-6.298;2023-05-16T08:25:52;24.27;;;6.43;;
24421;SDS011;12600;53.326;-6.298;2023-05-16T08:28:42;26.13;;;7.07;;
24421;SDS011;12600;53.326;-6.298;2023-05-16T08:31:31;26.38;;;6.80;;
24421;SDS011;12600;53.326;-6.298;2023-05-16T08:34:22;26.15;;;7.07;;
24421;SDS011;12600;53.326;-6.298;2023-05-16T08:37:11;26.05;;;6.88;;
24421;SDS011;12600;53.326;-6.298;2023-05-16T08:40:03;22.35;;;6.18;;
24421;SDS011;12600;53.326;-6.298;2023-05-16T08:42:56;36.00;;;7.40;;
24421;SDS011;12600;53.326;-6.298;2023-05-16T08:45:46;28.60;;;6.82;;
24421;SDS011;12600;53.326;-6.298;2023-05-16T08:48:35;24.42;;;6.43;;
24421;SDS011;12600;53.326;-6.298;2023-05-16T08:51:32;21.00;;;6.40;;
24421;SDS011;12600;53.326;-6.298;2023-05-16T08:57:14;21.15;;;5.93;;
24421;SDS011;12600;53.326;-6.298;2023-05-16T09:00:05;25.80;;;6.57;;
24421;SDS011;12600;53.326;-6.298;2023-05-16T09:02:58;25.98;;;6.60;;
24421;SDS011;12600;53.326;-6.298;2023-05-16T09:05:48;21.95;;;6.20;;
24421;SDS011;12600;53.326;-6.298;2023-05-16T09:08:40;20.85;;;6.05;;
24421;SDS011;12600;53.326;-6.298;2023-05-16T09:11:29;31.10;;;6.75;;
24421;SDS011;12600;53.326;-6.298;2023-05-16T09:14:21;30.17;;;7.20;;
24421;SDS011;12600;53.326;-6.298;2023-05-16T09:17:10;26.92;;;7.05;;
24421;SDS011;12600;53.326;-6.298;2023-05-16T09:20:07;23.92;;;6.88;;
24421;SDS011;12600;53.326;-6.298;2023-05-16T09:22:58;24.80;;;6.25;;
24421;SDS011;12600;53.326;-6.298;2023-05-16T09:25:51;20.38;;;6.03;;
24421;SDS011;12600;53.326;-6.298;2023-05-16T09:28:41;23.83;;;6.40;;
24421;SDS011;12600;53.326;-6.298;2023-05-16T09:31:31;25.15;;;6.00;;
24421;SDS011;12600;53.326;-6.298;2023-05-16T09:34:24;20.83;;;5.85;;
24421;SDS011;12600;53.326;-6.298;2023-05-16T09:37:14;23.25;;;6.15;;
24421;SDS011;12600;53.326;-6.298;2023-05-16T09:40:04;22.30;;;6.55;;
24421;SDS011;12600;53.326;-6.298;2023-05-16T09:43:02;23.08;;;6.22;;
24421;SDS011;12600;53.326;-6.298;2023-05-16T09:45:53;24.80;;;6.40;;
24421;SDS011;12600;53.326;-6.298;2023-05-16T09:48:46;25.38;;;6.70;;
24421;SDS011;12600;53.326;-6.298;2023-05-16T09:51:36;24.85;;;6.03;;
24421;SDS011;12600;53.326;-6.298;2023-05-16T09:54:29;23.92;;;6.00;;
24421;SDS011;12600;53.326;-6.298;2023-05-16T09:57:20;23.73;;;6.10;;
24421;SDS011;12600;53.326;-6.298;2023-05-16T10:00:11;24.15;;;5.97;;
24421;SDS011;12600;53.326;-6.298;2023-05-16T10:03:01;21.65;;;6.30;;
24421;SDS011;12600;53.326;-6.298;2023-05-16T10:05:52;21.42;;;6.40;;
24421;SDS011;12600;53.326;-6.298;2023-05-16T10:08:42;23.05;;;6.45;;
24421;SDS011;12600;53.326;-6.298;2023-05-16T10:11:32;20.20;;;6.43;;
24421;SDS011;12600;53.326;-6.298;2023-05-16T10:14:22;20.17;;;6.20;;
24421;SDS011;12600;53.326;-6.298;2023-05-16T10:17:14;19.13;;;6.15;;
24421;SDS011;12600;53.326;-6.298;2023-05-16T10:20:05;21.25;;;6.03;;
24421;SDS011;12600;53.326;-6.298;2023-05-16T10:22:57;20.42;;;6.10;;
24421;SDS011;12600;53.326;-6.298;2023-05-16T10:25:47;20.33;;;6.32;;
24421;SDS011;12600;53.326;-6.298;2023-05-16T10:28:37;19.67;;;5.93;;
24421;SDS011;12600;53.326;-6.298;2023-05-16T10:31:28;17.58;;;5.75;;
24421;SDS011;12600;53.326;-6.298;2023-05-16T10:34:20;16.83;;;5.88;;
24421;SDS011;12600;53.326;-6.298;2023-05-16T10:37:10;17.45;;;5.97;;
24421;SDS011;12600;53.326;-6.298;2023-05-16T10:39:59;21.65;;;6.38;;
24421;SDS011;12600;53.326;-6.298;2023-05-16T10:42:55;24.33;;;6.73;;
24421;SDS011;12600;53.326;-6.298;2023-05-16T10:45:45;22.70;;;5.80;;
24421;SDS011;12600;53.326;-6.298;2023-05-16T10:48:43;19.77;;;5.93;;
24421;SDS011;12600;53.326;-6.298;2023-05-16T10:51:37;18.85;;;6.32;;
24421;SDS011;12600;53.326;-6.298;2023-05-16T10:54:32;19.40;;;6.45;;
24421;SDS011;12600;53.326;-6.298;2023-05-16T10:57:23;22.52;;;6.35;;
24421;SDS011;12600;53.326;-6.298;2023-05-16T11:00:14;18.00;;;5.53;;
24421;SDS011;12600;53.326;-6.298;2023-05-16T11:03:18;16.63;;;5.82;;
24421;SDS011;12600;53.326;-6.298;2023-05-16T11:06:19;20.67;;;6.30;;
24421;SDS011;12600;53.326;-6.298;2023-05-16T11:09:19;15.07;;;5.80;;
24421;SDS011;12600;53.326;-6.298;2023-05-16T11:12:12;20.42;;;5.60;;
24421;SDS011;12600;53.326;-6.298;2023-05-16T11:15:06;17.70;;;6.03;;
24421;SDS011;12600;53.326;-6.298;2023-05-16T11:18:13;18.15;;;6.10;;
24421;SDS011;12600;53.326;-6.298;2023-05-16T11:21:05;23.05;;;5.82;;
24421;SDS011;12600;53.326;-6.298;2023-05-16T11:27:19;19.58;;;6.28;;
24421;SDS011;12600;53.326;-6.298;2023-05-16T11:30:12;20.15;;;6.13;;
24421;SDS011;12600;53.326;-6.298;2023-05-16T11:33:03;16.00;;;5.70;;
24421;SDS011;12600;53.326;-6.298;2023-05-16T11:36:00;17.13;;;5.60;;
24421;SDS011;12600;53.326;-6.298;2023-05-16T11:39:04;18.42;;;5.82;;
24421;SDS011;12600;53.326;-6.298;2023-05-16T11:41:57;17.17;;;5.63;;
24421;SDS011;12600;53.326;-6.298;2023-05-16T11:44:47;17.23;;;5.90;;
24421;SDS011;12600;53.326;-6.298;2023-05-16T11:47:37;17.65;;;5.80;;
24421;SDS011;12600;53.326;-6.298;2023-05-16T11:50:27;12.73;;;5.53;;
24421;SDS011;12600;53.326;-6.298;2023-05-16T11:53:17;16.75;;;6.05;;
24421;SDS011;12600;53.326;-6.298;2023-05-16T11:56:08;15.68;;;5.70;;
24421;SDS011;12600;53.326;-6.298;2023-05-16T11:58:59;17.30;;;5.85;;
24421;SDS011;12600;53.326;-6.298;2023-05-16T12:01:50;12.85;;;5.82;;
24421;SDS011;12600;53.326;-6.298;2023-05-16T12:04:40;16.70;;;5.90;;
24421;SDS011;12600;53.326;-6.298;2023-05-16T12:07:34;12.25;;;5.85;;
24421;SDS011;12600;53.326;-6.298;2023-05-16T12:10:24;15.20;;;6.32;;
24421;SDS011;12600;53.326;-6.298;2023-05-16T12:13:13;14.77;;;5.90;;
24421;SDS011;12600;53.326;-6.298;2023-05-16T12:16:08;14.35;;;5.53;;
24421;SDS011;12600;53.326;-6.298;2023-05-16T12:18:58;11.63;;;5.45;;
24421;SDS011;12600;53.326;-6.298;2023-05-16T12:21:51;18.30;;;6.05;;
24421;SDS011;12600;53.326;-6.298;2023-05-16T12:24:41;13.43;;;5.50;;
24421;SDS011;12600;53.326;-6.298;2023-05-16T12:27:31;12.10;;;5.20;;
24421;SDS011;12600;53.326;-6.298;2023-05-16T12:30:21;16.60;;;5.50;;
24421;SDS011;12600;53.326;-6.298;2023-05-16T12:33:14;16.33;;;5.50;;
24421;SDS011;12600;53.326;-6.298;2023-05-16T12:36:04;13.43;;;5.40;;
24421;SDS011;12600;53.326;-6.298;2023-05-16T12:39:00;12.70;;;5.28;;
24421;SDS011;12600;53.326;-6.298;2023-05-16T12:41:50;14.05;;;5.20;;
24421;SDS011;12600;53.326;-6.298;2023-05-16T12:44:41;14.30;;;4.93;;
24421;SDS011;12600;53.326;-6.298;2023-05-16T12:50:27;18.30;;;8.65;;
24421;SDS011;12600;53.326;-6.298;2023-05-16T12:53:17;9.80;;;5.10;;
24421;SDS011;12600;53.326;-6.298;2023-05-16T12:56:07;13.70;;;5.43;;
24421;SDS011;12600;53.326;-6.298;2023-05-16T12:58:57;13.73;;;5.20;;
24421;SDS011;12600;53.326;-6.298;2023-05-16T13:01:46;13.35;;;5.00;;
24421;SDS011;12600;53.326;-6.298;2023-05-16T13:04:35;12.63;;;4.85;;
24421;SDS011;12600;53.326;-6.298;2023-05-16T13:07:26;16.60;;;5.85;;
24421;SDS011;12600;53.326;-6.298;2023-05-16T13:10:16;16.27;;;5.70;;
24421;SDS011;12600;53.326;-6.298;2023-05-16T13:13:06;11.95;;;5.35;;
24421;SDS011;12600;53.326;-6.298;2023-05-16T13:15:55;11.95;;;5.25;;
24421;SDS011;12600;53.326;-6.298;2023-05-16T13:18:45;11.80;;;5.60;;
24421;SDS011;12600;53.326;-6.298;2023-05-16T13:21:34;14.10;;;5.25;;
24421;SDS011;12600;53.326;-6.298;2023-05-16T13:24:25;11.27;;;5.03;;
24421;SDS011;12600;53.326;-6.298;2023-05-16T13:27:14;10.50;;;4.75;;
24421;SDS011;12600;53.326;-6.298;2023-05-16T13:30:05;12.35;;;4.90;;
24421;SDS011;12600;53.326;-6.298;2023-05-16T13:32:56;11.60;;;4.72;;
24421;SDS011;12600;53.326;-6.298;2023-05-16T13:35:46;11.95;;;4.97;;
24421;SDS011;12600;53.326;-6.298;2023-05-16T13:38:35;12.00;;;5.00;;
24421;SDS011;12600;53.326;-6.298;2023-05-16T13:41:29;11.30;;;4.68;;
24421;SDS011;12600;53.326;-6.298;2023-05-16T13:44:20;16.38;;;5.25;;
24421;SDS011;12600;53.326;-6.298;2023-05-16T13:47:09;11.25;;;4.88;;
24421;SDS011;12600;53.326;-6.298;2023-05-16T13:49:59;14.13;;;4.78;;
24421;SDS011;12600;53.326;-6.298;2023-05-16T13:52:54;17.38;;;4.75;;
24421;SDS011;12600;53.326;-6.298;2023-05-16T13:55:43;10.57;;;4.07;;
24421;SDS011;12600;53.326;-6.298;2023-05-16T13:58:35;11.32;;;4.25;;
24421;SDS011;12600;53.326;-6.298;2023-05-16T14:01:44;10.43;;;4.32;;
24421;SDS011;12600;53.326;-6.298;2023-05-16T14:04:36;15.23;;;4.50;;
24421;SDS011;12600;53.326;-6.298;2023-05-16T14:07:26;10.93;;;4.63;;
24421;SDS011;12600;53.326;-6.298;2023-05-16T14:10:15;11.48;;;4.63;;
24421;SDS011;12600;53.326;-6.298;2023-05-16T14:13:04;11.40;;;4.72;;
24421;SDS011;12600;53.326;-6.298;2023-05-16T14:15:55;10.88;;;4.55;;
24421;SDS011;12600;53.326;-6.298;2023-05-16T14:18:45;9.88;;;4.35;;
24421;SDS011;12600;53.326;-6.298;2023-05-16T14:21:34;11.45;;;4.47;;
24421;SDS011;12600;53.326;-6.298;2023-05-16T14:24:24;8.55;;;3.85;;
24421;SDS011;12600;53.326;-6.298;2023-05-16T14:27:13;11.95;;;4.32;;
24421;SDS011;12600;53.326;-6.298;2023-05-16T14:30:03;13.05;;;4.20;;
24421;SDS011;12600;53.326;-6.298;2023-05-16T14:32:55;11.65;;;4.22;;
24421;SDS011;12600;53.326;-6.298;2023-05-16T14:35:47;12.32;;;4.60;;
24421;SDS011;12600;53.326;-6.298;2023-05-16T14:38:38;11.68;;;4.78;;
24421;SDS011;12600;53.326;-6.298;2023-05-16T14:41:27;10.23;;;4.30;;
24421;SDS011;12600;53.326;-6.298;2023-05-16T14:44:17;8.77;;;4.00;;
24421;SDS011;12600;53.326;-6.298;2023-05-16T14:47:07;12.88;;;4.63;;
24421;SDS011;12600;53.326;-6.298;2023-05-16T14:49:59;10.55;;;3.88;;
24421;SDS011;12600;53.326;-6.298;2023-05-16T14:52:49;11.90;;;4.13;;
24421;SDS011;12600;53.326;-6.298;2023-05-16T14:55:39;11.27;;;4.25;;
24421;SDS011;12600;53.326;-6.298;2023-05-16T14:58:28;9.60;;;3.83;;
24421;SDS011;12600;53.326;-6.298;2023-05-16T15:01:18;9.32;;;3.80;;
24421;SDS011;12600;53.326;-6.298;2023-05-16T15:04:08;9.38;;;3.80;;
24421;SDS011;12600;53.326;-6.298;2023-05-16T15:06:59;13.05;;;4.18;;
24421;SDS011;12600;53.326;-6.298;2023-05-16T15:09:48;8.90;;;3.88;;
24421;SDS011;12600;53.326;-6.298;2023-05-16T15:12:44;10.50;;;3.67;;
24421;SDS011;12600;53.326;-6.298;2023-05-16T15:15:33;11.65;;;3.90;;
24421;SDS011;12600;53.326;-6.298;2023-05-16T15:18:24;8.75;;;3.42;;
24421;SDS011;12600;53.326;-6.298;2023-05-16T15:21:14;10.55;;;3.38;;
24421;SDS011;12600;53.326;-6.298;2023-05-16T15:24:05;8.73;;;3.33;;
24421;SDS011;12600;53.326;-6.298;2023-05-16T15:26:55;10.63;;;3.80;;
24421;SDS011;12600;53.326;-6.298;2023-05-16T15:29:45;8.32;;;3.60;;
24421;SDS011;12600;53.326;-6.298;2023-05-16T15:32:34;7.82;;;3.72;;
24421;SDS011;12600;53.326;-6.298;2023-05-16T15:35:24;10.85;;;3.60;;
24421;SDS011;12600;53.326;-6.298;2023-05-16T15:38:13;9.27;;;4.10;;
24421;SDS011;12600;53.326;-6.298;2023-05-16T15:41:04;11.88;;;3.97;;
24421;SDS011;12600;53.326;-6.298;2023-05-16T15:44:15;11.90;;;3.58;;
24421;SDS011;12600;53.326;-6.298;2023-05-16T15:47:04;8.10;;;3.03;;
24421;SDS011;12600;53.326;-6.298;2023-05-16T15:49:54;8.07;;;3.67;;
24421;SDS011;12600;53.326;-6.298;2023-05-16T15:52:44;10.07;;;3.88;;
24421;SDS011;12600;53.326;-6.298;2023-05-16T15:55:33;10.63;;;4.10;;
24421;SDS011;12600;53.326;-6.298;2023-05-16T15:58:24;11.70;;;3.97;;
24421;SDS011;12600;53.326;-6.298;2023-05-16T16:01:14;12.02;;;3.67;;
24421;SDS011;12600;53.326;-6.298;2023-05-16T16:04:04;8.52;;;3.70;;
24421;SDS011;12600;53.326;-6.298;2023-05-16T16:06:54;9.50;;;3.47;;
24421;SDS011;12600;53.326;-6.298;2023-05-16T16:09:43;10.85;;;3.63;;
24421;SDS011;12600;53.326;-6.298;2023-05-16T16:12:33;10.63;;;3.53;;
24421;SDS011;12600;53.326;-6.298;2023-05-16T16:15:24;12.13;;;3.45;;
24421;SDS011;12600;53.326;-6.298;2023-05-16T16:18:17;8.30;;;3.65;;
24421;SDS011;12600;53.326;-6.298;2023-05-16T16:21:07;8.82;;;3.45;;
24421;SDS011;12600;53.326;-6.298;2023-05-16T16:23:57;9.00;;;3.47;;
24421;SDS011;12600;53.326;-6.298;2023-05-16T16:26:46;7.20;;;3.47;;
24421;SDS011;12600;53.326;-6.298;2023-05-16T16:29:35;11.48;;;3.72;;
24421;SDS011;12600;53.326;-6.298;2023-05-16T16:32:26;9.60;;;3.45;;
24421;SDS011;12600;53.326;-6.298;2023-05-16T16:35:16;8.20;;;3.03;;
24421;SDS011;12600;53.326;-6.298;2023-05-16T16:38:05;9.77;;;3.65;;
24421;SDS011;12600;53.326;-6.298;2023-05-16T16:40:58;9.15;;;3.33;;
24421;SDS011;12600;53.326;-6.298;2023-05-16T16:43:47;8.60;;;3.65;;
24421;SDS011;12600;53.326;-6.298;2023-05-16T16:46:39;7.80;;;3.40;;
24421;SDS011;12600;53.326;-6.298;2023-05-16T16:49:37;9.65;;;3.45;;
24421;SDS011;12600;53.326;-6.298;2023-05-16T16:52:27;7.05;;;3.55;;
24421;SDS011;12600;53.326;-6.298;2023-05-16T16:55:21;7.28;;;3.22;;